Terminal Aerodrome Forecast
Issued by NWS Cleveland, OH

Home | Current Version | Previous Version | Text Only | Print | Product List | Glossary Off
Versions: 1 2 3 4 5 6 7 8 9 10 11 12 13 14 15 16 17

000
FTUS41 KCLE 251934 AAB
TAFCAK
TAF AMD
KCAK 251934Z 2520/2618 23010G15KT P6SM VCSH BKN070
     FM260200 19005KT P6SM SCT250
     FM261200 20006KT P6SM OVC035
     FM261300 21007KT 4SM -TSRA BR OVC025CB
     FM261400 23009KT P6SM OVC035
     FM261700 22009KT P6SM BKN250=

USA.gov is the U.S. government's official web portal to all federal, state and local government web resources and services.